Time;durP1;ratioP1;P1;durP2;ratioP2;P2;SDS_P1;SDS_P2;PMS_P1;PMS_P2;Temp;Humidity;BMP_temperature;BMP_pressure;BME280_temperature;BME280_humidity;BME280_pressure;Samples;Min_cycle;Max_cycle;Signal;HPM_P1;HPM_P2
2023/05/12 00:00:10;;;;;;;30.50;12.52;;;16.80;99.90;;;;;;6256678;22;20016;-93
2023/05/12 00:02:44;;;;;;;34.72;13.88;;;16.80;99.90;;;;;;6248434;22;20022;-93
2023/05/12 00:05:17;;;;;;;29.52;13.73;;;16.70;99.90;;;;;;6198044;22;20007;-93
2023/05/12 00:07:46;;;;;;;34.40;12.98;;;16.70;99.90;;;;;;6231135;22;20024;-93
2023/05/12 00:10:20;;;;;;;29.60;12.88;;;16.70;99.90;;;;;;6269341;22;20035;-93
2023/05/12 00:13:01;;;;;;;35.92;14.38;;;16.60;99.90;;;;;;6253770;22;19996;-93
2023/05/12 00:18:25;;;;;;;26.58;13.65;;;16.60;99.90;;;;;;6286061;22;20059;-93
2023/05/12 00:20:53;;;;;;;37.83;14.75;;;16.60;99.90;;;;;;6194526;22;20043;-95
2023/05/12 00:23:32;;;;;;;30.80;13.88;;;16.50;99.90;;;;;;6252643;22;19996;-94
2023/05/12 00:25:59;;;;;;;30.85;13.23;;;16.50;99.90;;;;;;6267725;22;20014;-92
2023/05/12 00:28:42;;;;;;;31.42;13.45;;;16.50;99.90;;;;;;6235217;22;20315;-93
2023/05/12 00:31:11;;;;;;;23.65;12.88;;;16.50;99.90;;;;;;6176114;23;20033;-93
2023/05/12 00:33:38;;;;;;;28.60;14.55;;;16.40;99.90;;;;;;6138678;23;20010;-94
2023/05/12 00:36:08;;;;;;;31.42;14.00;;;16.40;99.90;;;;;;6122734;23;20014;-92
2023/05/12 00:38:36;;;;;;;31.80;12.85;;;16.40;99.90;;;;;;6094645;23;20029;-93
2023/05/12 00:41:04;;;;;;;23.90;13.25;;;16.50;99.90;;;;;;6119302;23;20099;-93
2023/05/12 00:43:34;;;;;;;30.70;13.80;;;16.50;99.90;;;;;;6118142;23;20010;-93
2023/05/12 00:46:07;;;;;;;30.20;14.13;;;16.50;99.90;;;;;;6118635;23;20018;-93
2023/05/12 00:48:35;;;;;;;25.35;13.38;;;16.60;99.90;;;;;;6089207;23;20078;-93
2023/05/12 00:51:06;;;;;;;28.88;13.32;;;16.50;99.90;;;;;;6088594;23;20059;-94
2023/05/12 00:53:34;;;;;;;25.33;13.23;;;16.50;99.90;;;;;;6111041;23;20014;-95
2023/05/12 00:56:01;;;;;;;26.38;13.52;;;16.50;99.90;;;;;;6087489;23;20002;-93
2023/05/12 00:58:33;;;;;;;27.10;13.15;;;16.50;99.90;;;;;;6088344;23;20097;-94
2023/05/12 01:01:07;;;;;;;;;;;16.50;99.90;;;;;;6110077;23;20070;-93
2023/05/12 01:03:40;;;;;;;28.92;12.07;;;16.50;99.90;;;;;;6111803;23;19905;-94
2023/05/12 01:06:33;;;;;;;30.17;11.88;;;16.50;99.90;;;;;;6087604;23;20010;-93
2023/05/12 01:09:03;;;;;;;24.25;12.40;;;16.50;99.90;;;;;;6063409;23;20018;-93
2023/05/12 01:11:39;;;;;;;27.95;13.40;;;16.50;99.90;;;;;;6107423;23;20017;-93
2023/05/12 01:14:09;;;;;;;36.97;13.10;;;16.60;99.90;;;;;;6121245;23;20024;-93
2023/05/12 01:16:47;;;;;;;25.48;13.52;;;16.50;99.90;;;;;;6177391;23;20060;-93
2023/05/12 01:19:48;;;;;;;22.30;12.52;;;16.60;99.90;;;;;;6205328;23;20016;-94
2023/05/12 01:22:25;;;;;;;27.52;12.73;;;16.50;99.90;;;;;;6204842;23;20019;-93
2023/05/12 01:25:04;;;;;;;31.95;12.07;;;16.50;99.90;;;;;;6141351;23;20021;-93
2023/05/12 01:27:34;;;;;;;30.60;12.73;;;16.50;99.90;;;;;;6117659;23;20056;-94
2023/05/12 01:30:26;;;;;;;21.25;11.73;;;16.40;99.90;;;;;;6115330;23;20014;-94
2023/05/12 01:33:01;;;;;;;26.40;12.50;;;16.40;99.90;;;;;;6140820;23;20005;-94
2023/05/12 01:35:31;;;;;;;29.45;12.30;;;16.40;99.90;;;;;;6123163;23;20073;-93
2023/05/12 01:38:09;;;;;;;28.67;12.13;;;16.40;99.90;;;;;;6120114;23;20016;-93
2023/05/12 01:40:40;;;;;;;28.63;12.35;;;16.20;99.90;;;;;;6186855;23;20008;-94
2023/05/12 01:43:11;;;;;;;24.45;11.52;;;16.20;99.90;;;;;;6198960;23;20011;-94
2023/05/12 01:45:40;;;;;;;29.40;11.20;;;16.20;99.90;;;;;;6173063;23;20041;-94
2023/05/12 01:48:13;;;;;;;21.25;10.93;;;16.10;99.90;;;;;;6127404;23;20017;-93
2023/05/12 01:50:42;;;;;;;23.65;11.75;;;16.00;99.90;;;;;;6172325;23;20100;-93
2023/05/12 01:53:19;;;;;;;25.85;11.07;;;16.00;99.90;;;;;;6171209;23;20383;-95
2023/05/12 01:56:01;;;;;;;32.15;12.48;;;16.00;99.90;;;;;;6164838;23;20012;-94
2023/05/12 01:58:33;;;;;;;23.73;11.65;;;15.90;99.90;;;;;;6155866;23;20029;-93
2023/05/12 02:01:08;;;;;;;28.60;11.98;;;15.80;99.90;;;;;;6183123;23;20013;-94
2023/05/12 02:03:46;;;;;;;26.67;12.25;;;15.80;99.90;;;;;;6132971;23;20063;-93
2023/05/12 02:06:17;;;;;;;28.52;12.23;;;15.80;99.90;;;;;;6202449;23;20009;-93
2023/05/12 02:08:48;;;;;;;27.60;12.05;;;15.70;99.90;;;;;;6175059;23;20028;-93
2023/05/12 02:11:22;;;;;;;26.63;11.60;;;15.70;99.90;;;;;;6177354;23;20073;-94
2023/05/12 02:14:01;;;;;;;19.92;11.45;;;15.60;99.90;;;;;;6174814;23;20029;-94
2023/05/12 02:16:36;;;;;;;31.00;12.50;;;15.60;99.90;;;;;;6175915;23;20024;-93
2023/05/12 02:19:07;;;;;;;22.15;10.13;;;15.60;99.90;;;;;;6149359;23;20021;-94
2023/05/12 02:21:44;;;;;;;32.22;12.05;;;15.50;99.90;;;;;;6176544;23;20006;-93
2023/05/12 02:24:18;;;;;;;24.20;11.60;;;15.50;99.90;;;;;;6238181;23;20327;-93
2023/05/12 02:26:45;;;;;;;29.02;11.85;;;15.40;99.90;;;;;;6201189;23;20118;-95
2023/05/12 02:29:17;;;;;;;28.40;12.07;;;15.40;99.90;;;;;;6176045;23;20011;-94
2023/05/12 02:31:47;;;;;;;28.52;11.73;;;15.30;99.90;;;;;;6202671;23;20005;-93
2023/05/12 02:34:17;;;;;;;21.90;11.70;;;15.30;99.90;;;;;;6203711;23;20000;-95
2023/05/12 02:36:48;;;;;;;23.92;11.73;;;15.20;99.90;;;;;;6204819;23;20017;-95
2023/05/12 02:39:18;;;;;;;26.77;11.57;;;15.10;99.90;;;;;;6155702;23;20009;-93
2023/05/12 02:41:45;;;;;;;25.80;12.02;;;15.10;99.90;;;;;;6190251;23;20017;-94
2023/05/12 02:44:12;;;;;;;18.08;11.52;;;15.10;99.90;;;;;;6203111;23;20020;-93
2023/05/12 02:46:40;;;;;;;27.42;12.07;;;15.00;99.90;;;;;;6218416;23;20057;-94
2023/05/12 02:49:07;;;;;;;28.67;12.48;;;15.00;99.90;;;;;;6227814;23;20005;-94
2023/05/12 02:51:35;;;;;;;26.45;12.30;;;15.00;99.90;;;;;;6207070;23;20012;-93
2023/05/12 02:54:30;;;;;;;30.23;12.90;;;15.00;99.90;;;;;;6211850;23;20020;-94
2023/05/12 02:56:58;;;;;;;27.15;12.13;;;15.00;99.90;;;;;;6219489;22;20047;-94
2023/05/12 02:59:26;;;;;;;27.20;12.30;;;14.90;99.90;;;;;;6233759;22;19996;-94
2023/05/12 03:01:55;;;;;;;28.33;12.25;;;14.90;99.90;;;;;;6253262;22;20023;-94
2023/05/12 03:04:25;;;;;;;30.02;11.90;;;14.90;99.90;;;;;;6271003;22;20027;-94
2023/05/12 03:06:52;;;;;;;26.08;11.73;;;14.90;99.90;;;;;;6265128;22;20012;-94
2023/05/12 03:09:23;;;;;;;30.13;11.70;;;14.80;99.90;;;;;;6265176;22;20004;-93
2023/05/12 03:11:50;;;;;;;30.55;11.52;;;14.70;99.90;;;;;;6238620;23;20005;-94
2023/05/12 03:14:25;;;;;;;20.67;10.55;;;14.70;99.90;;;;;;6213445;23;20008;-94
2023/05/12 03:16:55;;;;;;;30.25;11.23;;;14.60;99.90;;;;;;6164678;23;20076;-92
2023/05/12 03:19:23;;;;;;;23.98;11.02;;;14.60;99.90;;;;;;6168288;23;20013;-92
2023/05/12 03:21:50;;;;;;;26.75;10.45;;;14.50;99.90;;;;;;6170815;23;20052;-92
2023/05/12 03:24:21;;;;;;;21.77;11.23;;;14.50;99.90;;;;;;6172420;23;20015;-91
2023/05/12 03:26:47;;;;;;;27.15;11.48;;;14.40;99.90;;;;;;6167336;23;20104;-92
2023/05/12 03:29:15;;;;;;;24.80;11.43;;;14.50;99.90;;;;;;6168300;23;20346;-92
2023/05/12 03:31:42;;;;;;;21.58;11.45;;;14.50;99.90;;;;;;6169162;23;20017;-92
2023/05/12 03:34:09;;;;;;;21.52;11.30;;;14.60;99.90;;;;;;6172356;23;20001;-93
2023/05/12 03:36:36;;;;;;;24.30;11.80;;;14.50;99.90;;;;;;6173006;23;20017;-92
2023/05/12 03:39:03;;;;;;;22.55;10.60;;;14.50;99.90;;;;;;6176945;23;20005;-93
2023/05/12 03:41:32;;;;;;;21.65;11.32;;;14.50;99.90;;;;;;6178599;23;20073;-92
2023/05/12 03:43:59;;;;;;;17.77;10.43;;;14.50;99.90;;;;;;6228048;23;20035;-92
2023/05/12 03:46:26;;;;;;;24.13;10.43;;;14.50;99.90;;;;;;6161353;23;20084;-92
2023/05/12 03:49:10;;;;;;;21.20;11.07;;;14.50;99.90;;;;;;6172488;23;20016;-92
2023/05/12 03:51:42;;;;;;;19.35;10.50;;;14.40;99.90;;;;;;6167656;23;20017;-93
2023/05/12 03:54:29;;;;;;;18.85;11.20;;;14.50;99.90;;;;;;6173638;23;20065;-92
2023/05/12 03:56:57;;;;;;;24.05;11.18;;;14.50;99.90;;;;;;6170124;23;20008;-93
2023/05/12 03:59:24;;;;;;;19.85;11.13;;;14.50;99.90;;;;;;6167857;23;20007;-93
2023/05/12 04:01:52;;;;;;;20.70;10.70;;;14.60;99.90;;;;;;6219426;22;20024;-92
2023/05/12 04:04:20;;;;;;;26.77;11.95;;;14.70;99.90;;;;;;6221766;22;20018;-92
2023/05/12 04:06:47;;;;;;;21.08;10.35;;;14.70;99.90;;;;;;6230418;22;20012;-92
2023/05/12 04:09:15;;;;;;;22.50;10.07;;;14.70;99.90;;;;;;6235212;22;20030;-93
2023/05/12 04:11:42;;;;;;;24.30;10.02;;;14.80;99.90;;;;;;6235828;22;20004;-92
2023/05/12 04:14:09;;;;;;;21.63;10.90;;;14.90;99.90;;;;;;6237230;22;20089;-93
2023/05/12 04:16:36;;;;;;;27.92;11.27;;;14.90;99.90;;;;;;6238709;22;20035;-92
2023/05/12 04:19:07;;;;;;;22.65;11.43;;;14.90;99.90;;;;;;6238487;22;20004;-92
2023/05/12 04:21:35;;;;;;;18.60;10.70;;;15.10;99.90;;;;;;6241175;22;20004;-92
2023/05/12 04:24:06;;;;;;;18.95;11.13;;;15.30;99.90;;;;;;6201869;23;20020;-93
2023/05/12 04:27:03;;;;;;;19.50;10.82;;;15.30;99.90;;;;;;6191765;23;20005;-93
2023/05/12 04:29:58;;;;;;;26.85;11.35;;;15.60;99.90;;;;;;6163919;23;20123;-93
2023/05/12 04:32:53;;;;;;;21.73;11.05;;;15.70;99.90;;;;;;6180465;22;20008;-93
2023/05/12 04:36:01;;;;;;;16.47;9.50;;;15.80;99.90;;;;;;6305093;22;20048;-93
2023/05/12 04:38:33;;;;;;;20.92;11.35;;;15.90;99.90;;;;;;6274480;22;19999;-93
2023/05/12 04:44:17;;;;;;;;;;;;;;;;;;;;;
2023/05/12 04:47:28;;;;;;;;;;;;;;;;;;;;;
2023/05/12 04:50:47;;;;;;;25.67;12.70;;;17.40;99.90;;;;;;6336268;22;19992;-94
2023/05/12 04:54:14;;;;;;;;;;;;;;;;;;;;;
2023/05/12 04:57:12;;;;;;;20.75;15.77;;;18.30;99.90;;;;;;6103577;22;20035;-93
2023/05/12 04:59:57;;;;;;;25.90;17.88;;;19.00;99.90;;;;;;6252174;22;20087;-92
2023/05/12 05:30:28;;;;;;;21.58;19.58;;;22.80;99.90;;;;;;6306068;22;20025;-93
2023/05/12 05:33:23;;;;;;;22.20;19.50;;;22.60;99.90;;;;;;6262690;22;20011;-95
2023/05/12 05:35:58;;;;;;;21.80;19.85;;;22.30;99.90;;;;;;6263197;22;20061;-94
2023/05/12 22:36:30;;;;;;;28.98;7.20;;;16.00;99.90;;;;;;6305057;22;19968;-93
2023/05/12 22:38:57;;;;;;;22.05;6.95;;;16.00;99.90;;;;;;6256836;22;20084;-94
2023/05/12 22:41:23;;;;;;;29.08;7.60;;;16.00;99.90;;;;;;6257298;22;20003;-94
2023/05/12 22:43:50;;;;;;;29.90;7.40;;;16.10;99.90;;;;;;6256226;22;20008;-95
2023/05/12 22:46:17;;;;;;;31.38;8.50;;;16.10;99.90;;;;;;6255466;22;20007;-92
2023/05/12 22:48:43;;;;;;;21.90;7.45;;;16.10;99.90;;;;;;6256527;22;20094;-92
2023/05/12 22:51:10;;;;;;;30.17;8.38;;;16.10;99.90;;;;;;6256158;22;20055;-94
2023/05/12 22:53:40;;;;;;;25.95;7.75;;;16.10;99.90;;;;;;6255813;22;20014;-93
2023/05/12 22:56:07;;;;;;;24.67;8.05;;;16.10;99.90;;;;;;6256189;22;20083;-93
2023/05/12 22:58:33;;;;;;;21.27;7.57;;;16.10;99.90;;;;;;6255776;22;20030;-94
2023/05/12 23:01:00;;;;;;;15.70;6.97;;;16.10;99.90;;;;;;6255978;22;20011;-93
2023/05/12 23:03:27;;;;;;;27.15;7.45;;;16.10;99.90;;;;;;6256385;22;20007;-94
2023/05/12 23:05:54;;;;;;;33.17;8.95;;;16.10;99.90;;;;;;6255976;22;20053;-92
2023/05/12 23:08:21;;;;;;;26.40;8.68;;;16.10;99.90;;;;;;6255932;22;20090;-91
2023/05/12 23:10:48;;;;;;;31.15;8.93;;;16.10;99.90;;;;;;6256616;22;20055;-90
2023/05/12 23:13:14;;;;;;;34.50;9.30;;;16.10;99.90;;;;;;6256828;22;20007;-93
2023/05/12 23:15:44;;;;;;;22.30;8.18;;;16.10;99.90;;;;;;6257771;22;20008;-93
2023/05/12 23:18:11;;;;;;;26.10;8.07;;;16.10;99.90;;;;;;6257835;22;20007;-94
2023/05/12 23:20:37;;;;;;;22.15;7.65;;;16.10;99.90;;;;;;6257601;22;20003;-94
2023/05/12 23:23:03;;;;;;;25.70;7.28;;;16.10;99.90;;;;;;6255495;22;20007;-94
2023/05/12 23:25:31;;;;;;;23.08;8.63;;;16.00;99.90;;;;;;6256321;22;20014;-93
2023/05/12 23:27:57;;;;;;;22.35;8.32;;;16.00;99.90;;;;;;6254946;22;20019;-93
2023/05/12 23:30:24;;;;;;;25.02;7.55;;;16.00;99.90;;;;;;6255368;22;20000;-93
2023/05/12 23:32:53;;;;;;;23.95;7.82;;;16.00;99.90;;;;;;6256316;22;20015;-94
2023/05/12 23:35:19;;;;;;;23.83;7.43;;;16.00;99.90;;;;;;6256416;22;20070;-93
2023/05/12 23:37:46;;;;;;;28.65;8.00;;;16.00;99.90;;;;;;6257885;22;20160;-93
2023/05/12 23:40:12;;;;;;;17.27;7.43;;;16.00;99.90;;;;;;6257761;22;20022;-95
2023/05/12 23:42:39;;;;;;;16.92;7.43;;;16.00;99.90;;;;;;6257600;22;20037;-92
2023/05/12 23:45:06;;;;;;;26.80;8.52;;;16.00;99.90;;;;;;6257760;22;20082;-93
2023/05/12 23:47:33;;;;;;;34.53;8.63;;;16.00;99.90;;;;;;6257495;22;20431;-92
2023/05/12 23:49:59;;;;;;;35.80;8.15;;;16.00;99.90;;;;;;6257464;22;20432;-94
2023/05/12 23:52:26;;;;;;;32.65;8.95;;;16.00;99.90;;;;;;6257638;22;20495;-93
2023/05/12 23:54:53;;;;;;;25.40;7.93;;;16.00;99.90;;;;;;6257396;22;20011;-94
2023/05/12 23:57:19;;;;;;;25.35;8.50;;;16.00;99.90;;;;;;6282829;22;20007;-94
2023/05/12 23:59:46;;;;;;;31.65;8.40;;;16.00;99.90;;;;;;6258086;22;20003;-94
